createdAt,value
2019-04-13T00:01:21.295Z,3.80
2019-04-13T00:03:49.727Z,3.77
2019-04-13T00:06:25.597Z,3.79
2019-04-13T00:08:54.020Z,3.80
2019-04-13T00:11:32.659Z,3.82
2019-04-13T00:14:01.116Z,3.80
2019-04-13T00:16:29.674Z,3.84
2019-04-13T00:18:58.096Z,3.79
2019-04-13T00:21:26.501Z,3.76
2019-04-13T00:23:54.980Z,3.76
2019-04-13T00:26:23.388Z,3.79
2019-04-13T00:28:51.835Z,3.80
2019-04-13T00:31:20.246Z,3.77
2019-04-13T00:33:48.651Z,3.75
2019-04-13T00:36:17.070Z,3.73
2019-04-13T00:38:45.463Z,3.73
2019-04-13T00:41:13.969Z,3.77
2019-04-13T00:43:42.363Z,3.78
2019-04-13T00:46:10.763Z,3.73
2019-04-13T00:48:39.184Z,3.74
2019-04-13T00:51:07.766Z,3.73
2019-04-13T00:53:36.186Z,3.71
2019-04-13T00:56:04.652Z,3.68
2019-04-13T00:58:33.066Z,3.64
2019-04-13T01:01:01.493Z,3.62
2019-04-13T01:03:29.912Z,3.63
2019-04-13T01:05:58.406Z,3.61
2019-04-13T01:08:26.815Z,3.61
2019-04-13T01:10:55.314Z,3.58
2019-04-13T01:13:23.705Z,3.61
2019-04-13T01:15:52.107Z,3.60
2019-04-13T01:18:20.580Z,3.56
2019-04-13T01:20:49.006Z,3.57
2019-04-13T01:23:17.425Z,3.56
2019-04-13T01:25:45.846Z,3.57
2019-04-13T01:28:14.299Z,3.53
2019-04-13T01:30:42.720Z,3.51
2019-04-13T01:33:11.124Z,3.53
2019-04-13T01:35:39.544Z,3.52
2019-04-13T01:38:08.015Z,3.50
2019-04-13T01:40:36.405Z,3.50
2019-04-13T01:43:04.970Z,3.48
2019-04-13T01:45:33.440Z,3.36
2019-04-13T01:48:01.928Z,3.40
2019-04-13T01:50:30.346Z,3.43
2019-04-13T01:52:58.747Z,3.44
2019-04-13T01:55:27.161Z,3.37
2019-04-13T01:57:55.661Z,3.35
2019-04-13T02:00:28.150Z,3.36
2019-04-13T02:02:56.557Z,3.33
2019-04-13T02:05:42.675Z,3.40
2019-04-13T02:08:24.857Z,3.38
2019-04-13T02:10:55.002Z,3.30
2019-04-13T02:13:23.404Z,3.28
2019-04-13T02:15:51.795Z,3.27
2019-04-13T02:18:20.217Z,3.22
2019-04-13T02:20:48.637Z,3.15
2019-04-13T02:23:17.052Z,3.08
2019-04-13T02:25:45.464Z,3.09
2019-04-13T02:28:13.960Z,3.10
2019-04-13T02:30:42.381Z,3.10
2019-04-13T02:33:10.779Z,3.03
2019-04-13T02:35:39.193Z,2.98
2019-04-13T02:38:07.599Z,2.97
2019-04-13T02:40:36.039Z,2.87
2019-04-13T02:43:04.683Z,2.85
2019-04-13T02:45:33.118Z,2.86
2019-04-13T02:48:01.523Z,2.88
2019-04-13T02:50:29.930Z,2.90
2019-04-13T02:52:58.331Z,2.85
2019-04-13T02:55:26.794Z,2.89
2019-04-13T02:57:55.195Z,2.88
2019-04-13T03:00:23.721Z,2.84
2019-04-13T03:02:52.558Z,2.84
2019-04-13T03:05:21.051Z,2.83
2019-04-13T03:07:49.529Z,2.83
2019-04-13T03:10:18.013Z,2.83
2019-04-13T03:12:46.521Z,2.85
2019-04-13T03:15:15.306Z,2.82
2019-04-13T03:17:45.522Z,2.83
2019-04-13T03:20:27.543Z,2.82
2019-04-13T03:22:56.030Z,2.80
2019-04-13T03:25:24.426Z,2.77
2019-04-13T03:27:52.845Z,2.76
2019-04-13T03:30:22.914Z,2.73
2019-04-13T03:32:51.387Z,2.77
2019-04-13T03:35:19.819Z,2.81
2019-04-13T03:37:48.214Z,2.81
2019-04-13T03:40:16.680Z,2.73
2019-04-13T03:42:45.114Z,2.67
2019-04-13T03:45:13.987Z,2.60
2019-04-13T03:47:42.409Z,2.62
2019-04-13T03:50:10.955Z,2.59
2019-04-13T03:52:39.374Z,2.55
2019-04-13T03:55:07.903Z,2.59
2019-04-13T03:57:36.297Z,2.53
2019-04-13T04:00:06.645Z,2.55
2019-04-13T04:02:35.050Z,2.48
2019-04-13T04:05:03.831Z,2.46
2019-04-13T04:07:32.256Z,2.39
2019-04-13T04:10:00.649Z,2.44
2019-04-13T04:12:29.076Z,2.34
2019-04-13T04:14:57.506Z,2.34
2019-04-13T04:17:25.944Z,2.39
2019-04-13T04:19:54.326Z,2.37
2019-04-13T04:22:22.756Z,2.34
2019-04-13T04:24:51.144Z,2.40
2019-04-13T04:27:19.566Z,2.45
2019-04-13T04:29:47.992Z,2.43
2019-04-13T04:32:16.428Z,2.45
2019-04-13T04:34:44.816Z,2.41
2019-04-13T04:37:13.231Z,2.38
2019-04-13T04:39:41.629Z,2.37
2019-04-13T04:42:10.045Z,2.36
2019-04-13T04:44:38.461Z,2.38
2019-04-13T04:47:06.895Z,2.35
2019-04-13T04:49:35.320Z,2.30
2019-04-13T04:52:03.725Z,2.24
2019-04-13T04:54:32.158Z,2.22
2019-04-13T04:57:00.578Z,2.22
2019-04-13T04:59:29.021Z,2.20
2019-04-13T05:01:57.395Z,2.24
2019-04-13T05:04:25.809Z,2.23
2019-04-13T05:06:54.295Z,2.21
2019-04-13T05:09:22.694Z,2.11
2019-04-13T05:11:51.116Z,2.15
2019-04-13T05:14:19.527Z,2.13
2019-04-13T05:16:47.949Z,2.15
2019-04-13T05:19:16.348Z,1.99
2019-04-13T05:21:44.756Z,1.98
2019-04-13T05:24:13.194Z,1.97
2019-04-13T05:26:41.591Z,1.97
2019-04-13T05:29:10.007Z,1.96
2019-04-13T05:31:38.409Z,1.94
2019-04-13T05:34:06.833Z,1.89
2019-04-13T05:36:47.034Z,1.85
2019-04-13T05:39:05.984Z,1.83
2019-04-13T05:41:34.417Z,1.90
2019-04-13T05:44:02.922Z,1.87
2019-04-13T05:46:31.388Z,1.84
2019-04-13T05:48:59.867Z,1.88
2019-04-13T05:51:28.283Z,1.86
2019-04-13T05:53:56.682Z,1.83
2019-04-13T05:56:25.167Z,1.90
2019-04-13T05:59:02.689Z,1.91
2019-04-13T06:01:23.762Z,1.81
2019-04-13T06:03:53.025Z,1.89
2019-04-13T06:06:21.531Z,1.93
2019-04-13T06:08:49.937Z,1.93
2019-04-13T06:11:18.420Z,1.98
2019-04-13T06:13:46.855Z,1.97
2019-04-13T06:16:15.282Z,2.01
2019-04-13T06:18:43.706Z,1.98
2019-04-13T06:21:12.109Z,1.96
2019-04-13T06:23:40.566Z,2.05
2019-04-13T06:26:08.970Z,2.09
2019-04-13T06:28:37.383Z,2.09
2019-04-13T06:31:23.319Z,2.10
2019-04-13T06:33:59.471Z,2.15
2019-04-13T06:36:27.950Z,2.17
2019-04-13T06:38:59.462Z,2.14
2019-04-13T06:41:26.565Z,2.11
2019-04-13T06:43:54.961Z,2.20
2019-04-13T06:46:23.394Z,2.25
2019-04-13T06:48:51.808Z,2.28
2019-04-13T06:51:20.355Z,2.20
2019-04-13T06:53:48.786Z,2.19
2019-04-13T06:56:17.218Z,2.19
2019-04-13T06:58:45.684Z,2.19
2019-04-13T07:01:14.149Z,2.26
2019-04-13T07:03:42.569Z,2.27
2019-04-13T07:06:11.114Z,2.32
2019-04-13T07:08:41.159Z,2.35
2019-04-13T07:11:11.198Z,2.44
2019-04-13T07:13:49.916Z,2.50
2019-04-13T07:16:22.848Z,2.59
2019-04-13T07:18:51.272Z,2.64
2019-04-13T07:21:20.050Z,2.78
2019-04-13T07:23:48.695Z,2.89
2019-04-13T07:26:17.118Z,2.95
2019-04-13T07:28:47.640Z,3.00
2019-04-13T07:31:15.653Z,3.10
2019-04-13T07:33:44.054Z,3.15
2019-04-13T07:36:12.499Z,3.20
2019-04-13T07:38:40.909Z,3.25
2019-04-13T07:41:09.419Z,3.24
2019-04-13T07:43:37.915Z,3.25
2019-04-13T07:46:13.790Z,3.20
2019-04-13T07:48:56.838Z,3.26
2019-04-13T07:54:20.703Z,3.39
2019-04-13T07:56:49.120Z,3.40
2019-04-13T07:59:18.428Z,3.38
2019-04-13T08:01:56.527Z,3.38
2019-04-13T08:04:17.763Z,3.43
2019-04-13T08:06:46.157Z,3.47
2019-04-13T08:09:14.577Z,3.50
2019-04-13T08:11:43.020Z,3.50
2019-04-13T08:14:15.547Z,3.55
2019-04-13T08:16:43.937Z,3.62
2019-04-13T08:19:16.713Z,3.72
2019-04-13T08:21:45.265Z,3.83
2019-04-13T08:24:13.664Z,3.82
2019-04-13T08:26:42.093Z,3.82
2019-04-13T08:29:10.560Z,3.86
2019-04-13T08:31:39.045Z,3.81
2019-04-13T08:34:07.505Z,3.78
2019-04-13T08:36:35.987Z,3.83
2019-04-13T08:39:06.438Z,3.87
2019-04-13T08:41:35.012Z,3.88
2019-04-13T08:44:06.015Z,3.79
2019-04-13T08:46:33.701Z,3.90
2019-04-13T08:49:02.174Z,3.95
2019-04-13T08:51:30.650Z,4.06
2019-04-13T08:53:59.046Z,4.20
2019-04-13T08:56:30.786Z,4.22
2019-04-13T08:58:57.852Z,4.29
2019-04-13T09:01:26.317Z,4.28
2019-04-13T09:03:54.757Z,4.23
2019-04-13T09:06:23.152Z,4.19
2019-04-13T09:08:51.596Z,4.15
2019-04-13T09:11:20.744Z,4.15
2019-04-13T09:13:49.882Z,4.16
2019-04-13T09:16:18.575Z,4.24
2019-04-13T09:18:56.914Z,4.35
2019-04-13T09:21:29.680Z,4.29
2019-04-13T09:23:58.126Z,4.23
2019-04-13T09:26:26.570Z,4.21
2019-04-13T09:28:54.975Z,4.21
2019-04-13T09:31:25.481Z,4.34
2019-04-13T09:33:54.417Z,4.55
2019-04-13T09:36:22.832Z,4.77
2019-04-13T09:38:51.240Z,4.91
2019-04-13T09:41:19.712Z,5.03
2019-04-13T09:43:55.669Z,5.03
2019-04-13T09:46:22.608Z,5.10
2019-04-13T09:48:50.978Z,5.19
2019-04-13T09:51:19.418Z,5.22
2019-04-13T09:53:48.729Z,5.17
2019-04-13T09:56:17.437Z,5.11
2019-04-13T09:58:45.853Z,5.03
2019-04-13T10:01:14.336Z,5.05
2019-04-13T10:03:42.784Z,5.24
2019-04-13T10:06:11.303Z,5.37
2019-04-13T10:08:41.974Z,5.25
2019-04-13T10:11:10.403Z,5.10
2019-04-13T10:13:40.459Z,5.02
2019-04-13T10:16:22.842Z,4.98
2019-04-13T10:18:55.393Z,5.02
2019-04-13T10:21:23.031Z,4.99
2019-04-13T10:23:51.453Z,5.07
2019-04-13T10:26:20.005Z,5.33
2019-04-13T10:28:48.675Z,5.46
2019-04-13T10:31:17.210Z,5.43
2019-04-13T10:33:45.676Z,5.52
2019-04-13T10:36:14.076Z,5.64
2019-04-13T10:38:42.514Z,5.46
2019-04-13T10:41:10.910Z,5.36
2019-04-13T10:43:39.358Z,5.25
2019-04-13T10:46:15.539Z,4.98
2019-04-13T10:49:03.944Z,5.16
2019-04-13T10:51:36.691Z,5.38
2019-04-13T10:54:05.335Z,5.74
2019-04-13T10:56:33.821Z,6.09
2019-04-13T10:59:02.237Z,5.88
2019-04-13T11:01:30.677Z,5.47
2019-04-13T11:03:59.069Z,5.41
2019-04-13T11:06:27.468Z,5.46
2019-04-13T11:08:55.872Z,5.55
2019-04-13T11:11:24.300Z,5.45
2019-04-13T11:13:52.703Z,5.41
2019-04-13T11:16:21.186Z,5.53
2019-04-13T11:18:49.663Z,5.46
2019-04-13T11:21:18.117Z,5.38
2019-04-13T11:23:46.625Z,5.37
2019-04-13T11:26:15.195Z,5.51
2019-04-13T11:28:43.607Z,5.70
2019-04-13T11:31:12.019Z,5.87
2019-04-13T11:33:42.659Z,6.00
2019-04-13T11:36:10.629Z,5.73
2019-04-13T11:38:39.043Z,5.64
2019-04-13T11:41:14.828Z,5.72
2019-04-13T11:43:44.878Z,5.90
2019-04-13T11:46:30.177Z,5.84
2019-04-13T11:49:03.075Z,5.81
2019-04-13T11:51:32.518Z,5.80
2019-04-13T11:54:03.745Z,5.86
2019-04-13T11:56:31.131Z,5.93
2019-04-13T11:58:59.542Z,6.14
2019-04-13T12:01:35.636Z,6.38
2019-04-13T12:04:08.850Z,6.44
2019-04-13T12:06:55.102Z,6.68
2019-04-13T12:09:25.196Z,6.75
2019-04-13T12:12:11.608Z,6.79
2019-04-13T12:14:59.439Z,6.55
2019-04-13T12:17:32.197Z,6.31
2019-04-13T12:20:17.372Z,6.51
2019-04-13T12:22:46.037Z,6.65
2019-04-13T12:25:14.536Z,6.86
2019-04-13T12:27:42.955Z,6.88
2019-04-13T12:30:16.170Z,7.02
2019-04-13T12:32:47.121Z,6.80
2019-04-13T12:35:14.792Z,6.88
2019-04-13T12:37:43.229Z,7.31
2019-04-13T12:40:13.344Z,8.70
2019-04-13T12:42:41.852Z,8.87
2019-04-13T12:45:10.520Z,8.06
2019-04-13T12:47:42.176Z,7.62
2019-04-13T12:50:09.307Z,7.76
2019-04-13T12:52:37.692Z,7.72
2019-04-13T12:55:06.317Z,7.18
2019-04-13T12:57:34.678Z,7.08
2019-04-13T13:00:08.043Z,7.42
2019-04-13T13:02:39.594Z,7.25
2019-04-13T13:05:24.842Z,7.31
2019-04-13T13:07:53.271Z,8.31
2019-04-13T13:10:25.183Z,8.84
2019-04-13T13:12:52.150Z,9.49
2019-04-13T13:15:20.611Z,9.50
2019-04-13T13:17:49.104Z,9.89
2019-04-13T13:20:17.738Z,10.66
2019-04-13T13:22:46.258Z,10.99
2019-04-13T13:25:14.724Z,10.70
2019-04-13T13:27:43.211Z,10.55
2019-04-13T13:30:11.812Z,11.01
2019-04-13T13:32:40.315Z,10.79
2019-04-13T13:35:09.180Z,10.84
2019-04-13T13:37:38.577Z,9.79
2019-04-13T13:40:08.727Z,8.87
2019-04-13T13:42:38.535Z,8.56
2019-04-13T13:45:07.512Z,8.38
2019-04-13T13:47:35.912Z,8.02
2019-04-13T13:50:06.761Z,7.76
2019-04-13T13:52:37.848Z,7.51
2019-04-13T13:55:07.403Z,7.64
2019-04-13T13:57:37.472Z,8.02
2019-04-13T14:00:09.568Z,8.59
2019-04-13T14:02:37.994Z,9.15
2019-04-13T14:05:06.651Z,9.62
2019-04-13T14:07:35.067Z,9.53
2019-04-13T14:10:12.116Z,9.01
2019-04-13T14:12:41.972Z,7.38
2019-04-13T14:15:12.270Z,8.64
2019-04-13T14:17:40.768Z,8.29
2019-04-13T14:20:10.000Z,8.56
2019-04-13T14:22:38.531Z,8.97
2019-04-13T14:25:07.269Z,9.12
2019-04-13T14:27:35.746Z,9.07
2019-04-13T14:30:06.570Z,9.02
2019-04-13T14:32:35.065Z,9.12
2019-04-13T14:35:05.890Z,9.31
2019-04-13T14:37:34.537Z,9.57
2019-04-13T14:40:03.501Z,9.65
2019-04-13T14:42:33.680Z,10.00
2019-04-13T14:45:02.128Z,9.97
2019-04-13T14:47:30.590Z,9.98
2019-04-13T14:49:59.276Z,10.02
2019-04-13T14:52:27.646Z,9.95
2019-04-13T14:54:59.788Z,9.89
2019-04-13T14:57:26.181Z,9.98
2019-04-13T14:59:54.611Z,9.99
2019-04-13T15:02:23.025Z,10.01
2019-04-13T15:04:51.571Z,9.91
2019-04-13T15:07:19.992Z,10.09
2019-04-13T15:09:52.517Z,10.11
2019-04-13T15:12:18.540Z,10.12
2019-04-13T15:14:47.467Z,9.98
2019-04-13T15:17:18.062Z,9.85
2019-04-13T15:20:01.057Z,9.85
2019-04-13T15:22:17.712Z,9.70
2019-04-13T15:24:50.092Z,9.79
2019-04-13T15:27:16.464Z,9.69
2019-04-13T15:29:45.669Z,9.84
2019-04-13T15:32:14.777Z,9.58
2019-04-13T15:34:43.278Z,9.25
2019-04-13T15:37:12.749Z,9.28
2019-04-13T15:39:45.071Z,9.33
2019-04-13T15:42:17.447Z,9.24
2019-04-13T15:44:45.348Z,9.12
2019-04-13T15:47:15.360Z,8.87
2019-04-13T15:49:42.459Z,8.71
2019-04-13T15:52:12.105Z,8.56
2019-04-13T15:54:41.526Z,8.51
2019-04-13T15:57:11.521Z,8.30
2019-04-13T15:59:41.476Z,8.06
2019-04-13T16:02:10.346Z,8.05
2019-04-13T16:04:39.623Z,7.81
2019-04-13T16:07:09.450Z,7.59
2019-04-13T16:09:56.046Z,7.47
2019-04-13T16:12:27.603Z,7.46
2019-04-13T16:14:56.917Z,7.43
2019-04-13T16:17:25.430Z,7.15
2019-04-13T16:19:54.594Z,7.31
2019-04-13T16:22:23.449Z,7.45
2019-04-13T16:24:52.618Z,7.44
2019-04-13T16:27:20.998Z,7.01
2019-04-13T16:30:07.083Z,6.88
2019-04-13T16:32:38.303Z,7.09
2019-04-13T16:35:15.806Z,7.17
2019-04-13T16:37:46.274Z,7.08
2019-04-13T16:40:16.249Z,7.10
2019-04-13T16:42:44.711Z,6.86
2019-04-13T16:45:15.123Z,7.03
2019-04-13T16:47:51.687Z,7.30
2019-04-13T16:50:34.598Z,7.50
2019-04-13T16:53:10.600Z,7.72
2019-04-13T16:55:43.799Z,7.75
2019-04-13T16:58:25.828Z,7.68
2019-04-13T17:01:02.509Z,7.44
2019-04-13T17:03:41.450Z,7.26
2019-04-13T17:06:11.786Z,7.35
2019-04-13T17:08:41.215Z,7.32
2019-04-13T17:11:09.731Z,7.34
2019-04-13T17:13:39.170Z,7.41
2019-04-13T17:16:07.618Z,7.40
2019-04-13T17:18:44.643Z,7.14
2019-04-13T17:21:14.890Z,7.15
2019-04-13T17:23:50.646Z,7.13
2019-04-13T17:26:33.515Z,7.04
2019-04-13T17:29:10.938Z,6.92
2019-04-13T17:31:50.042Z,6.79
2019-04-13T17:34:36.260Z,6.71
2019-04-13T17:37:06.995Z,6.77
2019-04-13T17:39:36.087Z,6.68
2019-04-13T17:42:29.500Z,6.71
2019-04-13T17:44:56.210Z,6.77
2019-04-13T17:47:26.623Z,6.68
2019-04-13T17:50:13.695Z,6.30
2019-04-13T17:52:44.355Z,6.09
2019-04-13T17:55:17.316Z,5.97
2019-04-13T17:57:51.649Z,5.80
2019-04-13T18:00:45.234Z,5.78
2019-04-13T18:03:32.770Z,5.81
2019-04-13T18:06:15.150Z,5.78
2019-04-13T18:09:01.952Z,5.84
2019-04-13T18:11:42.513Z,5.93
2019-04-13T18:14:13.104Z,5.91
2019-04-13T18:16:46.590Z,5.87
2019-04-13T18:19:17.053Z,5.79
2019-04-13T18:21:45.575Z,5.70
2019-04-13T18:24:14.122Z,5.64
2019-04-13T18:26:43.882Z,5.59
2019-04-13T18:29:13.100Z,5.63
2019-04-13T18:31:42.268Z,5.65
2019-04-13T18:34:10.864Z,5.56
2019-04-13T18:36:40.577Z,5.47
2019-04-13T18:39:09.317Z,5.50
2019-04-13T18:41:37.699Z,5.27
2019-04-13T18:44:07.248Z,5.20
2019-04-13T18:46:36.261Z,5.24
2019-04-13T18:49:05.310Z,5.11
2019-04-13T18:51:34.024Z,5.16
2019-04-13T18:54:03.084Z,5.10
2019-04-13T18:56:31.671Z,5.06
2019-04-13T18:59:00.071Z,5.07
2019-04-13T19:01:29.382Z,5.03
2019-04-13T19:03:57.803Z,5.02
2019-04-13T19:06:27.316Z,4.86
2019-04-13T19:08:56.031Z,4.62
2019-04-13T19:11:24.512Z,4.50
2019-04-13T19:13:52.932Z,4.61
2019-04-13T19:16:21.399Z,4.65
2019-04-13T19:18:49.794Z,4.66
2019-04-13T19:21:18.359Z,4.69
2019-04-13T19:23:46.795Z,4.65
2019-04-13T19:26:15.346Z,4.55
2019-04-13T19:28:43.747Z,4.58
2019-04-13T19:31:12.175Z,4.60
2019-04-13T19:33:40.626Z,4.61
2019-04-13T19:36:09.046Z,4.37
2019-04-13T19:38:37.487Z,4.43
2019-04-13T19:41:05.965Z,4.44
2019-04-13T19:43:34.399Z,4.43
2019-04-13T19:46:02.886Z,4.43
2019-04-13T19:48:31.320Z,4.32
2019-04-13T19:50:59.759Z,4.26
2019-04-13T19:53:29.793Z,4.34
2019-04-13T19:55:59.885Z,4.37
2019-04-13T19:58:28.306Z,4.39
2019-04-13T20:00:56.735Z,4.43
2019-04-13T20:03:25.254Z,4.48
2019-04-13T20:05:53.684Z,4.48
2019-04-13T20:08:22.142Z,4.55
2019-04-13T20:10:50.557Z,4.49
2019-04-13T20:13:30.875Z,4.46
2019-04-13T20:15:49.206Z,4.30
2019-04-13T20:18:17.684Z,4.30
2019-04-13T20:20:46.198Z,4.28
2019-04-13T20:23:14.608Z,4.34
2019-04-13T20:25:43.926Z,4.33
2019-04-13T20:28:13.622Z,4.25
2019-04-13T20:30:43.375Z,4.28
2019-04-13T20:33:13.155Z,4.24
2019-04-13T20:35:55.905Z,4.25
2019-04-13T20:38:12.918Z,4.14
2019-04-13T20:40:44.425Z,4.03
2019-04-13T20:43:14.695Z,3.97
2019-04-13T20:45:43.177Z,3.88
2019-04-13T20:48:11.884Z,3.88
2019-04-13T20:50:41.189Z,3.87
2019-04-13T20:53:09.671Z,3.78
2019-04-13T20:55:39.221Z,3.72
2019-04-13T20:58:07.780Z,3.67
2019-04-13T21:00:36.307Z,3.73
2019-04-13T21:03:05.876Z,3.79
2019-04-13T21:05:34.425Z,3.72
2019-04-13T21:08:04.041Z,3.73
2019-04-13T21:10:32.527Z,3.83
2019-04-13T21:13:01.005Z,3.79
2019-04-13T21:15:29.497Z,3.78
2019-04-13T21:17:57.924Z,3.80
2019-04-13T21:20:27.154Z,3.80
2019-04-13T21:22:55.641Z,3.78
2019-04-13T21:25:25.123Z,3.74
2019-04-13T21:27:53.612Z,3.73
2019-04-13T21:30:22.925Z,3.74
2019-04-13T21:32:51.402Z,3.77
2019-04-13T21:35:20.938Z,3.76
2019-04-13T21:37:50.791Z,3.78
2019-04-13T21:40:19.244Z,3.72
2019-04-13T21:42:47.682Z,3.72
2019-04-13T21:45:16.684Z,3.77
2019-04-13T21:47:45.233Z,3.74
2019-04-13T21:50:28.347Z,3.73
2019-04-13T21:53:04.919Z,3.66
2019-04-13T21:55:44.031Z,3.68
2019-04-13T21:58:12.575Z,3.73
2019-04-13T22:01:10.767Z,3.69
2019-04-13T22:03:40.513Z,3.61
2019-04-13T22:06:10.240Z,3.59
2019-04-13T22:08:38.807Z,3.36
2019-04-13T22:11:08.274Z,3.28
2019-04-13T22:13:36.731Z,3.34
2019-04-13T22:16:05.923Z,3.38
2019-04-13T22:18:34.604Z,3.38
2019-04-13T22:21:03.028Z,3.37
2019-04-13T22:23:32.475Z,3.44
2019-04-13T22:26:01.007Z,3.26
2019-04-13T22:28:34.367Z,3.16
2019-04-13T22:31:04.947Z,3.17
2019-04-13T22:33:33.483Z,3.11
2019-04-13T22:36:07.058Z,3.10
2019-04-13T22:38:35.536Z,3.12
2019-04-13T22:41:04.915Z,3.04
2019-04-13T22:43:34.720Z,3.01
2019-04-13T22:46:04.259Z,3.09
2019-04-13T22:48:40.130Z,3.13
2019-04-13T22:51:27.187Z,3.21
2019-04-13T22:54:10.036Z,3.20
2019-04-13T22:56:40.243Z,3.19
2019-04-13T22:59:09.712Z,3.18
2019-04-13T23:01:46.225Z,3.22
2019-04-13T23:04:14.727Z,3.19
2019-04-13T23:06:43.148Z,3.18
2019-04-13T23:09:12.761Z,3.24
2019-04-13T23:11:41.356Z,3.31
2019-04-13T23:14:11.050Z,3.31
2019-04-13T23:16:39.559Z,3.40
2019-04-13T23:19:09.047Z,3.48
2019-04-13T23:21:37.586Z,3.51
2019-04-13T23:24:06.072Z,3.53
2019-04-13T23:26:34.481Z,3.53
2019-04-13T23:29:04.151Z,3.58
2019-04-13T23:31:32.674Z,3.54
2019-04-13T23:34:01.100Z,3.45
2019-04-13T23:36:29.507Z,3.48
2019-04-13T23:38:57.942Z,3.47
2019-04-13T23:41:26.343Z,3.39
2019-04-13T23:43:54.763Z,3.32
2019-04-13T23:46:24.258Z,3.36
2019-04-13T23:48:52.770Z,3.37
2019-04-13T23:51:21.165Z,3.38
2019-04-13T23:53:49.589Z,3.36
2019-04-13T23:56:19.636Z,3.40
2019-04-13T23:58:49.679Z,3.28
